Time;durP1;ratioP1;P1;durP2;ratioP2;P2;SDS_P1;SDS_P2;PMS_P1;PMS_P2;Temp;Humidity;BMP_temperature;BMP_pressure;BME280_temperature;BME280_humidity;BME280_pressure;Samples;Min_cycle;Max_cycle;Signal;HPM_P1;HPM_P2
2023/02/21 02:16:00;;;;;;;58.17;24.20;;;8.60;99.90;;;;;;5094788;28;20252;-74
2023/02/21 02:18:45;;;;;;;55.63;22.87;;;8.60;99.90;;;;;;5094889;28;20159;-74
2023/02/21 02:21:26;;;;;;;56.17;25.33;;;8.50;99.90;;;;;;5076758;28;20183;-75
2023/02/21 02:24:20;;;;;;;62.70;26.43;;;8.50;99.90;;;;;;5094681;28;20207;-75
2023/02/21 02:26:51;;;;;;;58.07;23.83;;;8.70;99.90;;;;;;5076789;28;20231;-77
2023/02/21 02:29:41;;;;;;;58.30;24.43;;;8.70;99.90;;;;;;5076517;28;20186;-76
2023/02/21 02:32:49;;;;;;;63.33;25.80;;;8.80;99.90;;;;;;5076221;28;20177;-75
2023/02/21 02:35:31;;;;;;;52.63;23.40;;;8.90;99.90;;;;;;5076482;28;20223;-74
2023/02/21 02:38:00;;;;;;;50.20;22.40;;;9.00;99.90;;;;;;5076566;28;20177;-75
2023/02/21 02:40:40;;;;;;;61.77;25.87;;;8.80;99.90;;;;;;5076162;28;20174;-74
2023/02/21 02:43:40;;;;;;;55.50;22.43;;;8.60;99.90;;;;;;5076403;28;20212;-76
2023/02/21 02:46:13;;;;;;;63.13;27.70;;;8.50;99.90;;;;;;5082253;28;20186;-77
2023/02/21 02:48:56;;;;;;;55.33;22.53;;;8.40;99.90;;;;;;5094217;28;20205;-76
2023/02/21 02:51:24;;;;;;;53.63;22.87;;;8.60;99.90;;;;;;5076018;28;20171;-75
2023/02/21 02:53:50;;;;;;;57.00;23.90;;;8.70;99.90;;;;;;5094209;28;20181;-75
2023/02/21 02:56:16;;;;;;;62.83;26.73;;;8.70;99.90;;;;;;5093991;28;20218;-75
2023/02/21 02:58:54;;;;;;;60.97;24.37;;;8.70;99.90;;;;;;5093948;28;20529;-75
2023/02/21 03:01:23;;;;;;;65.60;24.73;;;8.60;99.90;;;;;;5075789;28;20605;-75
2023/02/21 03:04:24;;;;;;;64.80;25.60;;;8.50;99.90;;;;;;5075846;28;20206;-75
2023/02/21 03:06:56;;;;;;;62.63;23.63;;;8.30;99.90;;;;;;5021972;28;20195;-76
2023/02/21 03:09:50;;;;;;;64.80;25.00;;;8.50;99.90;;;;;;5093560;28;20550;-75
2023/02/21 03:12:31;;;;;;;58.30;23.93;;;8.70;99.90;;;;;;5075475;28;20167;-74
2023/02/21 03:15:07;;;;;;;51.63;19.70;;;8.50;99.90;;;;;;5075452;28;20170;-76
2023/02/21 03:17:40;;;;;;;43.20;18.43;;;8.60;99.90;;;;;;5093873;28;20525;-75
2023/02/21 03:20:08;;;;;;;38.57;18.37;;;8.50;99.90;;;;;;5075378;28;20268;-76
2023/02/21 03:22:34;;;;;;;43.87;19.57;;;8.40;99.90;;;;;;5075326;28;20176;-77
2023/02/21 03:25:03;;;;;;;37.70;18.10;;;8.50;99.90;;;;;;5093375;28;20171;-75
2023/02/21 03:27:31;;;;;;;42.90;18.30;;;8.50;99.90;;;;;;5075174;28;20664;-75
2023/02/21 03:30:01;;;;;;;45.43;20.37;;;8.60;99.90;;;;;;5093188;28;20173;-76
2023/02/21 03:34:57;;;;;;;57.13;21.83;;;8.70;99.90;;;;;;5093539;28;20151;-76
2023/02/21 03:37:34;;;;;;;58.20;22.50;;;8.70;99.90;;;;;;5093293;28;20244;-77
2023/02/21 03:40:00;;;;;;;55.60;20.73;;;8.60;99.90;;;;;;5093293;28;20169;-76
2023/02/21 03:42:26;;;;;;;49.67;20.70;;;8.60;99.90;;;;;;5074734;28;20179;-76
2023/02/21 03:44:51;;;;;;;55.07;22.50;;;8.50;99.90;;;;;;5093193;28;20166;-76
2023/02/21 03:47:17;;;;;;;53.93;21.73;;;8.60;99.90;;;;;;5074850;28;20293;-75
2023/02/21 03:49:44;;;;;;;45.77;19.27;;;8.70;99.90;;;;;;5093139;28;20162;-75
2023/02/21 03:52:11;;;;;;;57.83;21.70;;;8.80;99.90;;;;;;5074960;28;20209;-76
2023/02/21 03:54:38;;;;;;;49.50;20.43;;;8.70;99.90;;;;;;5074973;28;20193;-74
2023/02/21 03:57:04;;;;;;;51.17;19.73;;;8.70;99.90;;;;;;5092760;28;20219;-75
2023/02/21 03:59:29;;;;;;;51.10;19.80;;;8.70;99.90;;;;;;5074916;28;20616;-75
2023/02/21 04:01:55;;;;;;;48.47;18.97;;;8.70;99.90;;;;;;5093223;28;20509;-74
2023/02/21 04:04:21;;;;;;;51.77;18.90;;;8.70;99.90;;;;;;5074749;28;20196;-76
2023/02/21 04:06:46;;;;;;;43.87;17.90;;;8.60;99.90;;;;;;5092753;28;20177;-75
2023/02/21 04:09:12;;;;;;;39.60;16.27;;;8.60;99.90;;;;;;5074843;28;20235;-76
2023/02/21 04:11:42;;;;;;;31.70;12.67;;;8.30;99.90;;;;;;5092491;28;20165;-77
2023/02/21 04:14:09;;;;;;;27.57;11.83;;;8.10;99.90;;;;;;5092801;28;20158;-75
2023/02/21 04:16:35;;;;;;;29.07;12.60;;;8.20;99.90;;;;;;5074544;28;20163;-76
2023/02/21 04:19:01;;;;;;;29.53;13.40;;;8.00;99.90;;;;;;5074305;28;20169;-76
2023/02/21 04:21:27;;;;;;;30.23;13.23;;;8.10;99.90;;;;;;5093088;28;20190;-75
2023/02/21 04:23:53;;;;;;;27.13;12.17;;;8.30;99.90;;;;;;5074375;28;20229;-74
2023/02/21 04:26:19;;;;;;;31.60;12.70;;;8.40;99.90;;;;;;5092338;28;20524;-76
2023/02/21 04:28:45;;;;;;;32.80;13.47;;;8.40;99.90;;;;;;5074759;28;20191;-75
2023/02/21 04:31:16;;;;;;;28.07;12.73;;;8.50;99.90;;;;;;5092557;28;20163;-75
2023/02/21 04:33:42;;;;;;;36.60;14.97;;;8.50;99.90;;;;;;5074391;28;20259;-75
2023/02/21 04:36:07;;;;;;;30.70;12.53;;;8.60;99.90;;;;;;5074378;28;20198;-75
2023/02/21 04:38:33;;;;;;;30.67;13.67;;;8.60;99.90;;;;;;5074324;28;20166;-75
2023/02/21 04:40:59;;;;;;;27.37;12.03;;;8.60;99.90;;;;;;5092201;28;20154;-76
2023/02/21 04:43:24;;;;;;;22.93;10.80;;;8.70;99.90;;;;;;5074426;28;20170;-76
2023/02/21 04:45:50;;;;;;;21.87;10.70;;;8.60;99.90;;;;;;5074450;28;20161;-75
2023/02/21 04:48:16;;;;;;;20.50;10.37;;;8.60;99.90;;;;;;5074107;28;20768;-76
2023/02/21 04:50:42;;;;;;;20.87;10.30;;;8.30;99.90;;;;;;5092331;28;20651;-75
2023/02/21 04:53:08;;;;;;;22.93;12.23;;;8.30;99.90;;;;;;5092337;28;20169;-76
2023/02/21 04:55:34;;;;;;;23.83;11.83;;;8.30;99.90;;;;;;5074111;28;20151;-76
2023/02/21 04:58:01;;;;;;;23.93;11.40;;;8.60;99.90;;;;;;5074196;28;20155;-76
2023/02/21 05:00:26;;;;;;;22.40;12.10;;;8.60;99.90;;;;;;5074308;28;20170;-76
2023/02/21 05:02:52;;;;;;;27.90;13.63;;;8.50;99.90;;;;;;5074082;28;20526;-76
2023/02/21 05:05:18;;;;;;;25.07;12.40;;;8.30;99.90;;;;;;5092183;28;20174;-76
2023/02/21 05:07:43;;;;;;;27.97;11.93;;;8.20;99.90;;;;;;5092216;28;20285;-75
2023/02/21 05:10:10;;;;;;;27.23;12.43;;;8.20;99.90;;;;;;5073934;28;20183;-75
2023/02/21 05:12:38;;;;;;;22.47;12.07;;;8.10;99.90;;;;;;5074135;28;20174;-76
2023/02/21 05:15:04;;;;;;;22.60;10.37;;;8.20;99.90;;;;;;5092217;28;20171;-75
2023/02/21 05:17:30;;;;;;;21.87;10.43;;;8.10;99.90;;;;;;5074085;28;20198;-75
2023/02/21 05:19:56;;;;;;;21.60;11.27;;;8.10;99.90;;;;;;5092027;28;20227;-76
2023/02/21 05:22:21;;;;;;;21.43;10.73;;;8.20;99.90;;;;;;5092124;28;20631;-76
2023/02/21 05:24:48;;;;;;;24.03;11.30;;;8.40;99.90;;;;;;5073836;28;20163;-74
2023/02/21 05:27:16;;;;;;;20.60;10.20;;;8.30;99.90;;;;;;5074211;28;22444;-76
2023/02/21 05:29:48;;;;;;;19.27;9.33;;;8.20;99.90;;;;;;5091832;28;20273;-75
2023/02/21 05:32:15;;;;;;;18.43;9.57;;;8.20;99.90;;;;;;5095144;28;20362;-76
2023/02/21 05:34:43;;;;;;;17.03;8.63;;;8.20;99.90;;;;;;5095766;28;20272;-75
2023/02/21 05:37:09;;;;;;;18.40;8.43;;;8.30;99.90;;;;;;5077376;28;20178;-74
2023/02/21 05:39:35;;;;;;;18.20;9.10;;;8.10;99.90;;;;;;5077046;28;20166;-75
2023/02/21 05:42:01;;;;;;;17.63;9.10;;;8.00;99.90;;;;;;5095544;28;20153;-75
2023/02/21 05:44:27;;;;;;;16.20;8.53;;;8.10;99.90;;;;;;5095381;28;20177;-75
2023/02/21 05:46:53;;;;;;;16.83;8.00;;;8.30;99.90;;;;;;5077836;28;20165;-75
2023/02/21 05:49:21;;;;;;;16.97;9.00;;;8.30;99.90;;;;;;5095968;28;20204;-74
2023/02/21 05:51:47;;;;;;;16.57;8.67;;;8.00;99.90;;;;;;5078005;28;20176;-75
2023/02/21 05:54:18;;;;;;;16.47;8.53;;;8.20;99.90;;;;;;5077655;28;20162;-76
2023/02/21 05:56:48;;;;;;;18.80;8.30;;;8.20;99.90;;;;;;5077773;28;20244;-75
2023/02/21 05:59:15;;;;;;;17.67;8.40;;;8.20;99.90;;;;;;5095984;28;20169;-75
2023/02/21 06:01:42;;;;;;;16.37;8.03;;;8.30;99.90;;;;;;5073704;28;20170;-75
2023/02/21 06:04:11;;;;;;;15.47;7.40;;;8.30;99.90;;;;;;5074138;28;20618;-74
2023/02/21 06:06:40;;;;;;;13.70;6.90;;;8.00;99.90;;;;;;5073752;28;20173;-74
2023/02/21 06:09:11;;;;;;;11.83;6.83;;;7.80;99.90;;;;;;5073464;28;20210;-75
2023/02/21 06:11:39;;;;;;;15.20;8.20;;;7.70;99.90;;;;;;5073886;28;20197;-75
2023/02/21 06:14:12;;;;;;;16.77;8.20;;;7.60;99.90;;;;;;5074297;28;20241;-76
2023/02/21 06:16:38;;;;;;;13.37;7.40;;;7.70;99.90;;;;;;5073949;28;20157;-75
2023/02/21 06:19:07;;;;;;;17.53;8.33;;;7.80;99.90;;;;;;5073885;28;20523;-76
2023/02/21 06:21:34;;;;;;;18.07;7.97;;;8.10;99.90;;;;;;5073720;28;20176;-76
2023/02/21 06:24:10;;;;;;;17.27;8.40;;;8.30;99.90;;;;;;5074959;28;20524;-76
2023/02/21 06:26:39;;;;;;;21.83;9.73;;;8.30;99.90;;;;;;5075075;28;20175;-76
2023/02/21 06:29:06;;;;;;;18.90;9.00;;;8.00;99.90;;;;;;5074808;28;20232;-76
2023/02/21 06:31:35;;;;;;;19.53;8.33;;;7.90;99.90;;;;;;5074860;28;20176;-75
2023/02/21 06:34:00;;;;;;;17.67;7.70;;;8.20;99.90;;;;;;5073544;28;20817;-75
2023/02/21 06:36:27;;;;;;;17.17;8.70;;;8.20;99.90;;;;;;5073307;28;20165;-83
2023/02/21 06:38:56;;;;;;;19.10;9.17;;;8.30;99.90;;;;;;5073667;28;20170;-74
2023/02/21 06:41:27;;;;;;;16.97;9.00;;;8.30;99.90;;;;;;5073383;28;20166;-75
2023/02/21 06:43:55;;;;;;;20.30;9.13;;;8.00;99.90;;;;;;5074709;28;20162;-75
2023/02/21 06:46:25;;;;;;;18.43;8.53;;;8.10;99.90;;;;;;5074756;28;20189;-76
2023/02/21 06:48:51;;;;;;;21.20;8.50;;;8.40;99.90;;;;;;5073164;28;20204;-75
2023/02/21 06:51:28;;;;;;;19.33;8.70;;;8.40;99.90;;;;;;5073010;28;20197;-76
2023/02/21 06:53:55;;;;;;;19.50;8.33;;;8.20;99.90;;;;;;5073491;28;20225;-75
2023/02/21 06:56:20;;;;;;;17.67;7.80;;;8.10;99.90;;;;;;5073207;28;20174;-75
2023/02/21 06:58:49;;;;;;;17.10;7.90;;;8.10;99.90;;;;;;5074518;28;20155;-75
2023/02/21 07:01:16;;;;;;;17.23;8.10;;;8.20;99.90;;;;;;5074417;28;20187;-76
2023/02/21 07:03:46;;;;;;;14.73;7.40;;;8.10;99.90;;;;;;5073400;28;20250;-76
2023/02/21 07:06:18;;;;;;;14.80;6.30;;;8.10;99.90;;;;;;5074197;28;20701;-76
2023/02/21 07:08:43;;;;;;;11.70;5.53;;;8.20;99.90;;;;;;5073792;28;20198;-74
2023/02/21 07:11:09;;;;;;;13.70;7.10;;;8.20;99.90;;;;;;5072027;28;20282;-75
2023/02/21 07:13:35;;;;;;;11.67;6.47;;;8.10;99.90;;;;;;5073234;28;20172;-75
2023/02/21 07:16:01;;;;;;;10.60;5.87;;;7.90;99.90;;;;;;5071610;28;20170;-75
2023/02/21 07:18:27;;;;;;;12.80;6.50;;;7.80;99.90;;;;;;5071721;28;20174;-75
2023/02/21 07:20:53;;;;;;;11.30;5.83;;;8.00;99.90;;;;;;5071462;28;20227;-75
2023/02/21 07:23:18;;;;;;;13.83;6.63;;;8.10;99.90;;;;;;5072244;28;20522;-74
2023/02/21 07:25:44;;;;;;;12.93;6.90;;;8.30;99.90;;;;;;5072082;28;20180;-74
2023/02/21 07:28:10;;;;;;;14.37;7.13;;;8.10;99.90;;;;;;5071996;28;20201;-75
2023/02/21 07:30:36;;;;;;;14.57;7.00;;;8.00;99.90;;;;;;5071717;28;20510;-75
2023/02/21 07:33:02;;;;;;;12.97;6.67;;;8.00;99.90;;;;;;5071676;28;20178;-77
2023/02/21 07:35:27;;;;;;;11.37;5.87;;;8.00;99.90;;;;;;5071537;28;20578;-73
2023/02/21 07:37:53;;;;;;;13.57;6.63;;;8.10;99.90;;;;;;5072157;28;20516;-76
2023/02/21 07:40:19;;;;;;;15.73;7.10;;;8.10;99.90;;;;;;5071595;28;20174;-75
2023/02/21 07:42:46;;;;;;;15.07;6.93;;;8.10;99.90;;;;;;5071539;28;20264;-75
2023/02/21 07:45:14;;;;;;;16.70;7.20;;;8.00;99.90;;;;;;5071547;28;20180;-76
2023/02/21 07:47:40;;;;;;;15.33;8.10;;;8.00;99.90;;;;;;5073061;28;20186;-75
2023/02/21 07:50:06;;;;;;;13.23;7.00;;;7.80;99.90;;;;;;5072534;28;20526;-74
2023/02/21 07:52:32;;;;;;;13.87;7.47;;;8.00;99.90;;;;;;5071312;28;20178;-75
2023/02/21 07:55:00;;;;;;;17.17;8.80;;;8.00;99.90;;;;;;5071285;28;20528;-75
2023/02/21 07:57:26;;;;;;;17.80;8.83;;;8.20;99.90;;;;;;5071496;28;20247;-75
2023/02/21 07:59:52;;;;;;;23.00;10.83;;;8.30;99.90;;;;;;5071596;28;20180;-75
2023/02/21 08:02:17;;;;;;;24.47;11.00;;;8.50;99.90;;;;;;5071267;28;20684;-75
2023/02/21 08:04:43;;;;;;;29.80;11.93;;;8.40;99.90;;;;;;5072487;28;20155;-76
2023/02/21 08:07:09;;;;;;;27.70;12.23;;;8.40;99.90;;;;;;5070910;28;20167;-76
2023/02/21 08:09:36;;;;;;;30.87;12.43;;;8.50;99.90;;;;;;5071376;28;20205;-75
2023/02/21 08:12:03;;;;;;;32.53;13.23;;;8.50;99.90;;;;;;5071222;28;20221;-75
2023/02/21 08:14:28;;;;;;;34.97;13.17;;;8.30;99.90;;;;;;5071339;28;20181;-76
2023/02/21 08:16:54;;;;;;;35.23;13.70;;;8.30;99.90;;;;;;5072570;28;20151;-74
2023/02/21 08:19:20;;;;;;;39.53;14.57;;;8.40;99.90;;;;;;5070924;28;20168;-75
2023/02/21 08:21:47;;;;;;;35.60;13.73;;;8.40;99.90;;;;;;5072274;28;20179;-74
2023/02/21 08:24:13;;;;;;;37.10;14.03;;;8.40;99.90;;;;;;5072438;28;20170;-75
2023/02/21 08:26:40;;;;;;;38.30;15.53;;;8.50;99.90;;;;;;5070896;28;20163;-75
2023/02/21 08:29:08;;;;;;;40.83;15.43;;;8.40;99.90;;;;;;5070975;28;20187;-75
2023/02/21 08:31:43;;;;;;;42.27;16.30;;;8.70;99.90;;;;;;5072219;28;20152;-74
2023/02/21 08:34:09;;;;;;;43.47;16.67;;;8.80;99.90;;;;;;5072182;28;20152;-74
2023/02/21 08:36:37;;;;;;;41.77;15.97;;;8.70;99.90;;;;;;5072237;28;20226;-75
2023/02/21 08:39:04;;;;;;;49.13;18.10;;;8.70;99.90;;;;;;5072623;28;20581;-75
2023/02/21 08:41:37;;;;;;;40.63;17.07;;;8.60;99.90;;;;;;5070966;28;20266;-74
2023/02/21 08:44:03;;;;;;;43.27;15.27;;;8.50;99.90;;;;;;5070930;28;20171;-75
2023/02/21 08:46:29;;;;;;;44.60;15.50;;;8.50;99.90;;;;;;5070872;28;20226;-75
2023/02/21 08:48:54;;;;;;;46.93;17.37;;;8.50;99.90;;;;;;5070881;28;20274;-76
2023/02/21 08:51:25;;;;;;;47.97;16.93;;;8.40;99.90;;;;;;5070723;28;20257;-74
2023/02/21 08:53:51;;;;;;;40.80;15.33;;;8.50;99.90;;;;;;5070819;28;20169;-75
2023/02/21 08:56:20;;;;;;;41.63;15.30;;;8.50;99.90;;;;;;5072052;28;20159;-75
2023/02/21 08:58:46;;;;;;;46.97;17.43;;;8.50;99.90;;;;;;5070707;28;20170;-74
2023/02/21 09:01:12;;;;;;;48.27;17.00;;;8.60;99.90;;;;;;5070806;28;20171;-76
2023/02/21 09:03:37;;;;;;;38.50;16.00;;;8.50;99.90;;;;;;5070602;28;20171;-76
2023/02/21 09:06:03;;;;;;;37.77;15.53;;;8.70;99.90;;;;;;5071485;28;20167;-75
2023/02/21 09:08:32;;;;;;;43.50;16.57;;;8.70;99.90;;;;;;5074210;28;20210;-74
2023/02/21 09:10:59;;;;;;;48.60;18.57;;;8.70;99.90;;;;;;5075601;28;20179;-75
2023/02/21 09:13:26;;;;;;;44.80;17.20;;;8.80;99.90;;;;;;5075526;28;20763;-75
2023/02/21 09:15:51;;;;;;;46.03;18.00;;;8.80;99.90;;;;;;5074092;28;20159;-75
2023/02/21 09:18:18;;;;;;;48.90;17.27;;;8.70;99.90;;;;;;5073964;28;20627;-75
2023/02/21 09:20:50;;;;;;;44.53;16.33;;;8.60;99.90;;;;;;5073934;28;20174;-76
2023/02/21 09:23:17;;;;;;;37.40;15.33;;;8.70;99.90;;;;;;5075285;28;20167;-76
2023/02/21 09:25:43;;;;;;;44.67;15.97;;;8.60;99.90;;;;;;5073917;28;20178;-75
2023/02/21 09:28:09;;;;;;;36.33;15.40;;;8.80;99.90;;;;;;5075130;28;20190;-75
2023/02/21 09:30:34;;;;;;;43.87;16.63;;;8.70;99.90;;;;;;5075131;28;20285;-75
2023/02/21 09:33:00;;;;;;;44.40;16.73;;;8.90;99.90;;;;;;5074148;28;20199;-76
2023/02/21 09:35:29;;;;;;;35.37;14.43;;;8.80;99.90;;;;;;5073996;28;20159;-74
2023/02/21 09:37:57;;;;;;;38.57;13.67;;;8.80;99.90;;;;;;5075237;28;20224;-76
2023/02/21 09:40:43;;;;;;;40.67;14.73;;;9.00;99.90;;;;;;5073901;28;20183;-75
2023/02/21 09:43:19;;;;;;;40.53;14.70;;;9.20;99.90;;;;;;5073542;28;20205;-75
2023/02/21 09:45:48;;;;;;;34.10;13.27;;;9.30;99.90;;;;;;5073615;28;20171;-76
2023/02/21 09:48:17;;;;;;;31.07;12.73;;;9.30;99.90;;;;;;5073648;28;20285;-76
2023/02/21 09:50:47;;;;;;;35.57;14.73;;;9.40;99.90;;;;;;5073692;28;20171;-75
2023/02/21 09:53:21;;;;;;;34.57;13.97;;;9.00;99.90;;;;;;5074886;28;20159;-77
2023/02/21 09:55:50;;;;;;;39.47;14.00;;;9.10;99.90;;;;;;5074052;28;20166;-75
2023/02/21 09:58:18;;;;;;;35.47;13.10;;;9.00;99.90;;;;;;5073403;28;20195;-76
2023/02/21 10:00:44;;;;;;;27.47;12.13;;;8.90;99.90;;;;;;5073299;28;20254;-76
2023/02/21 10:03:38;;;;;;;27.40;11.90;;;9.10;99.90;;;;;;5073443;28;20274;-75
2023/02/21 10:06:21;;;;;;;33.33;12.70;;;8.90;99.90;;;;;;5073349;28;20182;-76
2023/02/21 10:08:56;;;;;;;31.67;12.93;;;9.00;99.90;;;;;;5074732;28;20202;-75
2023/02/21 10:11:30;;;;;;;27.93;12.70;;;9.10;99.90;;;;;;5073408;28;20175;-75
2023/02/21 10:14:12;;;;;;;29.17;11.97;;;9.10;99.90;;;;;;5073073;28;20377;-76
2023/02/21 10:17:03;;;;;;;27.27;12.27;;;9.10;99.90;;;;;;5072735;28;20247;-74
2023/02/21 10:19:34;;;;;;;29.30;11.53;;;9.20;99.90;;;;;;5073222;28;20167;-75
2023/02/21 10:22:10;;;;;;;23.43;10.27;;;9.20;99.90;;;;;;5073194;28;20171;-75
2023/02/21 10:24:36;;;;;;;25.57;11.07;;;9.20;99.90;;;;;;5074262;28;20556;-75
2023/02/21 10:27:11;;;;;;;22.73;10.73;;;9.30;99.90;;;;;;5073255;28;20186;-75
2023/02/21 10:30:03;;;;;;;25.50;11.57;;;9.30;99.90;;;;;;5072668;28;20178;-75
2023/02/21 10:32:28;;;;;;;28.00;12.00;;;9.20;99.90;;;;;;5066011;28;20552;-75
2023/02/21 10:34:54;;;;;;;27.73;11.33;;;9.30;99.90;;;;;;5073458;28;20171;-78
2023/02/21 10:37:35;;;;;;;20.30;11.23;;;9.30;99.90;;;;;;5075518;28;20179;-80
2023/02/21 10:40:21;;;;;;;23.47;11.20;;;9.20;99.90;;;;;;5073385;28;20615;-80
2023/02/21 10:42:55;;;;;;;21.17;10.07;;;9.30;99.90;;;;;;5073984;28;20270;-81
2023/02/21 10:45:29;;;;;;;19.47;9.50;;;9.20;99.90;;;;;;5073559;28;20653;-80
2023/02/21 10:48:04;;;;;;;18.03;9.90;;;9.30;99.90;;;;;;5073603;28;20701;-81
2023/02/21 10:50:48;;;;;;;20.00;9.97;;;9.30;99.90;;;;;;5074628;28;20155;-79
2023/02/21 10:53:34;;;;;;;17.57;9.47;;;9.10;99.90;;;;;;5073139;28;20175;-79
2023/02/21 10:56:18;;;;;;;18.77;10.20;;;8.80;99.90;;;;;;5080232;28;20171;-81
2023/02/21 10:58:46;;;;;;;17.73;9.47;;;8.60;99.90;;;;;;5076537;28;20190;-79
2023/02/21 11:01:20;;;;;;;17.37;9.50;;;8.60;99.90;;;;;;5094648;28;20178;-79
2023/02/21 11:03:49;;;;;;;15.93;8.77;;;8.60;99.90;;;;;;5075422;28;20163;-81
2023/02/21 11:06:46;;;;;;;20.87;9.47;;;8.30;99.90;;;;;;5057421;28;20266;-81
2023/02/21 11:09:39;;;;;;;19.47;9.47;;;8.20;99.90;;;;;;5050804;28;20210;-76
2023/02/21 11:12:30;;;;;;;19.63;9.67;;;8.40;99.90;;;;;;5076819;28;20174;-75
2023/02/21 11:15:01;;;;;;;21.53;10.70;;;8.80;99.90;;;;;;5094007;28;20235;-75
2023/02/21 11:17:33;;;;;;;20.00;10.57;;;9.00;99.90;;;;;;5094023;28;20205;-76
2023/02/21 11:20:16;;;;;;;24.37;11.77;;;9.10;99.90;;;;;;5090583;28;20170;-76
2023/02/21 11:22:47;;;;;;;21.50;10.60;;;9.20;99.90;;;;;;5055458;28;20174;-76
2023/02/21 11:25:32;;;;;;;20.37;11.23;;;9.30;99.90;;;;;;5072954;28;20635;-76
2023/02/21 11:28:13;;;;;;;19.77;10.27;;;9.30;99.90;;;;;;5058063;28;20228;-75
2023/02/21 11:30:49;;;;;;;18.70;9.67;;;9.40;99.90;;;;;;5075000;28;20180;-77
2023/02/21 11:33:19;;;;;;;19.23;10.10;;;9.30;99.90;;;;;;5094160;28;20219;-75
2023/02/21 11:36:12;;;;;;;19.50;10.20;;;9.50;99.90;;;;;;5085447;28;20166;-76
2023/02/21 11:38:46;;;;;;;17.90;9.63;;;9.60;99.90;;;;;;5060643;28;20175;-78
2023/02/21 11:41:19;;;;;;;15.77;9.57;;;9.70;99.90;;;;;;5074979;28;20173;-76
2023/02/21 11:43:50;;;;;;;19.10;9.70;;;9.60;99.90;;;;;;5076120;28;20174;-76
2023/02/21 11:46:45;;;;;;;14.23;8.73;;;9.60;99.90;;;;;;5075504;28;20203;-76
2023/02/21 11:49:41;;;;;;;14.43;8.63;;;9.70;99.90;;;;;;5070833;28;20195;-75
2023/02/21 11:52:18;;;;;;;13.17;7.90;;;9.80;99.90;;;;;;5073294;28;20178;-76
2023/02/21 11:54:44;;;;;;;13.80;7.60;;;9.70;99.90;;;;;;5071683;28;20677;-75
2023/02/21 11:57:43;;;;;;;14.17;7.47;;;9.70;99.90;;;;;;5072870;28;20151;-76
2023/02/21 12:00:37;;;;;;;11.07;6.93;;;9.70;99.90;;;;;;5073221;28;20174;-75
2023/02/21 12:03:18;;;;;;;12.23;6.70;;;9.70;99.90;;;;;;5093741;28;20231;-76
2023/02/21 12:06:06;;;;;;;12.27;7.57;;;9.70;99.90;;;;;;5054459;28;20214;-76
2023/02/21 12:08:46;;;;;;;12.73;8.07;;;9.60;99.90;;;;;;5077578;28;20206;-75
2023/02/21 12:11:35;;;;;;;12.90;6.87;;;9.70;99.90;;;;;;5071684;28;20171;-78
2023/02/21 12:14:23;;;;;;;16.17;8.90;;;9.70;99.90;;;;;;5072158;28;20486;-76
2023/02/21 12:17:10;;;;;;;15.70;8.57;;;9.80;99.90;;;;;;5072425;28;20167;-76
2023/02/21 12:19:45;;;;;;;16.07;8.37;;;9.80;99.90;;;;;;5071915;28;20233;-76
2023/02/21 12:22:37;;;;;;;15.63;8.47;;;9.60;99.90;;;;;;5071534;28;20174;-77
2023/02/21 12:25:33;;;;;;;18.20;8.83;;;9.60;99.90;;;;;;5072840;28;20159;-75
2023/02/21 12:28:44;;;;;;;14.23;9.10;;;9.70;99.90;;;;;;5035680;28;20240;-76
2023/02/21 12:31:41;;;;;;;18.63;8.67;;;10.00;99.90;;;;;;5074954;28;20198;-74
2023/02/21 12:34:19;;;;;;;15.67;8.73;;;10.10;99.90;;;;;;5075148;28;20162;-77
2023/02/21 12:37:18;;;;;;;14.10;8.47;;;10.20;99.90;;;;;;5075249;28;20694;-76
2023/02/21 12:40:18;;;;;;;17.80;9.27;;;10.00;99.90;;;;;;5062096;28;20224;-75
2023/02/21 12:43:25;;;;;;;17.43;10.00;;;10.00;99.90;;;;;;5060781;28;20190;-74
2023/02/21 12:45:58;;;;;;;16.33;9.23;;;10.10;99.90;;;;;;5078975;28;20174;-76
2023/02/21 12:48:40;;;;;;;16.37;9.17;;;10.20;99.90;;;;;;5092603;28;20532;-75
2023/02/21 12:51:13;;;;;;;18.00;9.43;;;10.40;99.90;;;;;;5075217;28;20530;-74
2023/02/21 12:53:52;;;;;;;16.43;8.97;;;10.40;99.90;;;;;;5078240;28;20255;-76
2023/02/21 12:56:35;;;;;;;17.40;9.20;;;10.30;99.90;;;;;;5078480;28;20174;-75
2023/02/21 13:00:06;;;;;;;21.27;9.97;;;10.50;99.90;;;;;;5094711;28;20174;-75
2023/02/21 13:03:05;;;;;;;16.17;9.63;;;10.50;99.90;;;;;;5036070;28;20550;-75
2023/02/21 13:05:38;;;;;;;18.23;10.20;;;10.60;99.90;;;;;;5074995;28;20639;-76
2023/02/21 13:08:15;;;;;;;16.50;9.23;;;10.70;99.90;;;;;;5071389;28;20469;-76
2023/02/21 13:11:09;;;;;;;14.83;8.83;;;10.80;99.90;;;;;;5075725;28;20182;-76
2023/02/21 13:13:35;;;;;;;18.00;8.37;;;10.50;99.90;;;;;;5076608;28;20217;-76
2023/02/21 13:16:04;;;;;;;14.50;9.10;;;10.40;99.90;;;;;;5058394;28;20167;-75
2023/02/21 13:18:58;;;;;;;17.60;9.90;;;10.70;99.90;;;;;;5063689;28;20282;-75
2023/02/21 13:21:23;;;;;;;16.90;10.13;;;10.70;99.90;;;;;;5068641;28;20172;-76
2023/02/21 13:24:19;;;;;;;16.87;9.20;;;10.70;99.90;;;;;;5075162;28;20167;-76
2023/02/21 13:26:59;;;;;;;17.97;9.60;;;10.90;99.90;;;;;;5075192;28;20159;-76
2023/02/21 13:29:33;;;;;;;15.43;8.83;;;10.90;99.90;;;;;;5074817;28;20203;-76
2023/02/21 13:32:15;;;;;;;18.00;10.43;;;10.80;99.90;;;;;;5074514;28;20175;-76
2023/02/21 13:34:44;;;;;;;15.63;9.07;;;10.80;99.90;;;;;;5073712;28;20745;-75
2023/02/21 13:37:20;;;;;;;16.30;8.93;;;10.80;99.90;;;;;;5073833;28;20190;-75
2023/02/21 13:39:53;;;;;;;18.30;9.27;;;10.70;99.90;;;;;;5065258;28;20228;-75
2023/02/21 13:42:22;;;;;;;16.13;8.77;;;10.70;99.90;;;;;;5076507;28;20514;-76
2023/02/21 13:44:51;;;;;;;15.57;8.63;;;10.80;99.90;;;;;;5095320;28;20186;-76
2023/02/21 13:47:20;;;;;;;14.30;8.60;;;11.00;99.90;;;;;;5077095;28;20175;-76
2023/02/21 13:49:57;;;;;;;15.23;8.97;;;10.90;99.90;;;;;;5075773;28;20210;-76
2023/02/21 13:52:31;;;;;;;17.30;9.90;;;10.90;99.90;;;;;;5073402;28;20643;-75
2023/02/21 13:57:40;;;;;;;15.20;9.23;;;10.70;99.90;;;;;;5092991;28;20190;-76
2023/02/21 14:00:24;;;;;;;17.30;10.07;;;10.40;99.90;;;;;;5076539;28;20170;-74
2023/02/21 14:03:08;;;;;;;17.47;9.57;;;10.40;99.90;;;;;;5094260;28;20158;-74
2023/02/21 14:05:43;;;;;;;16.50;9.80;;;10.20;99.90;;;;;;5076070;28;20211;-75
2023/02/21 14:08:18;;;;;;;18.10;10.13;;;10.20;99.90;;;;;;5091523;28;20252;-75
2023/02/21 14:10:47;;;;;;;15.77;10.07;;;10.20;99.90;;;;;;5076080;28;20223;-76
2023/02/21 14:13:35;;;;;;;15.57;9.40;;;9.90;99.90;;;;;;5076599;28;20163;-75
2023/02/21 14:16:06;;;;;;;18.73;10.13;;;9.80;99.90;;;;;;5076288;28;20182;-76
2023/02/21 14:18:48;;;;;;;15.60;8.60;;;9.90;99.90;;;;;;5072526;28;20215;-76
2023/02/21 14:21:28;;;;;;;16.00;9.23;;;10.20;99.90;;;;;;5073234;28;20289;-75
2023/02/21 14:24:05;;;;;;;19.67;10.50;;;10.30;99.90;;;;;;5076174;28;20213;-76
2023/02/21 14:26:43;;;;;;;15.83;9.70;;;10.60;99.90;;;;;;5075992;28;20231;-76
2023/02/21 14:29:09;;;;;;;15.67;9.30;;;10.60;99.90;;;;;;5093973;28;20581;-76
2023/02/21 14:31:54;;;;;;;15.83;9.47;;;10.70;99.90;;;;;;5076586;28;20628;-77
2023/02/21 14:34:46;;;;;;;15.90;9.20;;;10.50;99.90;;;;;;5075696;28;20646;-75
2023/02/21 14:37:44;;;;;;;15.27;9.40;;;10.50;99.90;;;;;;5065218;28;20619;-77
2023/02/21 14:40:31;;;;;;;17.10;10.03;;;10.50;99.90;;;;;;5075919;28;20177;-75
2023/02/21 14:43:06;;;;;;;15.30;9.50;;;10.60;99.90;;;;;;5076164;28;20182;-74
2023/02/21 14:46:09;;;;;;;17.70;9.93;;;10.70;99.90;;;;;;5075945;28;20217;-75
2023/02/21 14:49:09;;;;;;;20.23;9.87;;;10.90;99.90;;;;;;5093413;28;20190;-75
2023/02/21 14:52:09;;;;;;;18.10;10.13;;;10.90;99.90;;;;;;5081917;28;20193;-75
2023/02/21 14:55:11;;;;;;;17.47;9.97;;;10.80;99.90;;;;;;5079709;28;20217;-76
2023/02/21 14:57:55;;;;;;;18.13;10.57;;;10.80;99.90;;;;;;5076009;28;20174;-75
2023/02/21 15:00:59;;;;;;;14.33;10.03;;;10.60;99.90;;;;;;5075599;28;20178;-74
2023/02/21 15:03:32;;;;;;;19.03;9.93;;;10.70;99.90;;;;;;4992213;28;20182;-75
2023/02/21 15:06:01;;;;;;;16.30;10.57;;;10.50;99.90;;;;;;5079381;28;20189;-75
2023/02/21 15:08:27;;;;;;;15.37;10.07;;;10.50;99.90;;;;;;5075223;28;20540;-75
2023/02/21 15:11:02;;;;;;;20.37;10.43;;;10.70;99.90;;;;;;5075243;28;20170;-76
2023/02/21 15:13:33;;;;;;;18.83;10.40;;;10.70;99.90;;;;;;5075568;28;20173;-76
2023/02/21 15:16:03;;;;;;;16.40;10.23;;;10.70;99.90;;;;;;5093127;28;20642;-75
2023/02/21 15:18:32;;;;;;;19.13;10.47;;;10.70;99.90;;;;;;5093619;28;20183;-74
2023/02/21 15:21:16;;;;;;;16.23;9.93;;;10.80;99.90;;;;;;5075289;28;20257;-75
2023/02/21 15:23:58;;;;;;;18.27;10.37;;;10.90;99.90;;;;;;5075697;28;20182;-76
2023/02/21 15:26:30;;;;;;;17.03;10.20;;;10.80;99.90;;;;;;5075388;28;20520;-75
2023/02/21 15:29:17;;;;;;;17.10;10.67;;;10.90;99.90;;;;;;5093522;28;20190;-76
2023/02/21 15:31:53;;;;;;;17.20;10.07;;;10.80;99.90;;;;;;5092923;28;20662;-75